Time;durP1;ratioP1;P1;durP2;ratioP2;P2;SDS_P1;SDS_P2;PMS_P1;PMS_P2;Temp;Humidity;BMP_temperature;BMP_pressure;BME280_temperature;BME280_humidity;BME280_pressure;Samples;Min_cycle;Max_cycle;Signal;HPM_P1;HPM_P2
2022/08/13 00:02:08;;;;;;;4.10;2.08;;;21.20;96.70;;;;;;5054100;28;20083;-72
2022/08/13 00:04:34;;;;;;;3.03;2.10;;;21.10;96.90;;;;;;5075991;28;20139;-72
2022/08/13 00:09:26;;;;;;;2.72;2.05;;;21.10;97.40;;;;;;5075846;28;20050;-72
2022/08/13 00:14:37;;;;;;;5.13;2.28;;;21.10;97.70;;;;;;5076698;28;20088;-73
2022/08/13 00:17:06;;;;;;;2.22;1.80;;;21.00;98.00;;;;;;5076741;28;20043;-73
2022/08/13 00:19:31;;;;;;;5.10;2.10;;;21.00;98.00;;;;;;5075519;28;20481;-73
2022/08/13 00:21:59;;;;;;;4.55;2.17;;;21.00;98.10;;;;;;5076347;28;20051;-73
2022/08/13 00:24:26;;;;;;;3.03;2.30;;;21.00;98.40;;;;;;5076083;28;20040;-73
2022/08/13 00:26:52;;;;;;;3.92;2.20;;;21.00;98.60;;;;;;5076003;28;20393;-73
2022/08/13 00:29:18;;;;;;;2.97;2.28;;;21.00;98.80;;;;;;5076268;28;20047;-72
2022/08/13 00:31:46;;;;;;;2.28;1.90;;;20.90;98.80;;;;;;5076118;28;20434;-73
2022/08/13 00:34:12;;;;;;;3.38;2.17;;;20.90;99.10;;;;;;5074828;28;20131;-73
2022/08/13 00:36:37;;;;;;;3.35;2.15;;;20.90;99.30;;;;;;5076063;28;20082;-72
2022/08/13 00:39:06;;;;;;;2.30;2.10;;;20.90;99.50;;;;;;5074098;28;20055;-72
2022/08/13 00:41:37;;;;;;;3.80;2.10;;;20.80;99.70;;;;;;5075029;28;20051;-72
2022/08/13 00:44:11;;;;;;;3.17;2.10;;;20.80;99.90;;;;;;5057995;28;20045;-73
2022/08/13 00:46:38;;;;;;;3.75;2.38;;;20.80;99.90;;;;;;5076041;28;20282;-73
2022/08/13 00:49:06;;;;;;;4.78;2.05;;;20.80;99.90;;;;;;5075894;28;20045;-73
2022/08/13 00:51:34;;;;;;;5.28;2.40;;;20.80;99.90;;;;;;5074793;28;20048;-73
2022/08/13 00:54:02;;;;;;;3.88;2.17;;;20.80;99.90;;;;;;5074818;28;20044;-73
2022/08/13 00:56:33;;;;;;;3.45;2.20;;;20.70;99.90;;;;;;5076140;28;20088;-73
2022/08/13 00:59:07;;;;;;;2.45;2.25;;;20.70;99.90;;;;;;5075879;28;20483;-73
2022/08/13 01:01:44;;;;;;;4.38;2.70;;;20.70;99.90;;;;;;5075843;28;20048;-72
2022/08/13 01:04:11;;;;;;;2.20;1.90;;;20.70;99.90;;;;;;5075559;28;20052;-73
2022/08/13 01:06:37;;;;;;;2.92;2.40;;;20.70;99.90;;;;;;5074305;28;20497;-73
2022/08/13 01:09:04;;;;;;;4.32;2.25;;;20.70;99.90;;;;;;5073791;28;20105;-73
2022/08/13 01:11:32;;;;;;;5.55;2.60;;;20.70;99.90;;;;;;5074367;28;20040;-72
2022/08/13 01:14:02;;;;;;;3.90;2.72;;;20.60;99.90;;;;;;5074836;28;20040;-73
2022/08/13 01:16:32;;;;;;;2.47;2.28;;;20.60;99.90;;;;;;5074078;28;20516;-73
2022/08/13 01:19:03;;;;;;;3.20;1.98;;;20.60;99.90;;;;;;5075444;28;20044;-73
2022/08/13 01:21:31;;;;;;;4.85;2.33;;;20.50;99.90;;;;;;5075438;28;20052;-73
2022/08/13 01:23:57;;;;;;;2.35;2.00;;;20.50;99.90;;;;;;5075021;28;20159;-73
2022/08/13 01:26:23;;;;;;;2.40;2.20;;;20.50;99.90;;;;;;5075129;28;20045;-73
2022/08/13 01:28:51;;;;;;;2.65;2.08;;;20.50;99.90;;;;;;5057429;28;20135;-73
2022/08/13 01:31:19;;;;;;;3.10;2.25;;;20.50;99.90;;;;;;5056971;28;20167;-73
2022/08/13 01:33:47;;;;;;;3.58;2.17;;;20.40;99.90;;;;;;5075375;28;20060;-73
2022/08/13 01:36:13;;;;;;;5.00;2.40;;;20.40;99.90;;;;;;5075133;28;20045;-74
2022/08/13 01:38:41;;;;;;;2.83;2.53;;;20.40;99.90;;;;;;5074682;28;20051;-73
2022/08/13 01:41:11;;;;;;;3.42;2.15;;;20.40;99.90;;;;;;5074906;28;20396;-73
2022/08/13 01:43:38;;;;;;;2.95;2.17;;;20.30;99.90;;;;;;5074588;28;20047;-73
2022/08/13 01:46:06;;;;;;;3.63;2.42;;;20.30;99.90;;;;;;5074762;28;20055;-73
2022/08/13 01:51:22;;;;;;;4.43;2.55;;;20.20;99.90;;;;;;5074659;28;20557;-72
2022/08/13 01:53:49;;;;;;;7.30;2.22;;;20.20;99.90;;;;;;5073276;28;20043;-73
2022/08/13 01:56:21;;;;;;;3.45;2.35;;;20.20;99.90;;;;;;5073328;28;20079;-72
2022/08/13 01:59:02;;;;;;;4.55;2.42;;;20.10;99.90;;;;;;5073885;28;20107;-72
2022/08/13 02:01:30;;;;;;;2.85;2.35;;;20.10;99.90;;;;;;5074771;28;20054;-73
2022/08/13 02:03:57;;;;;;;4.60;2.13;;;20.00;99.90;;;;;;5074364;28;20102;-73
2022/08/13 02:06:25;;;;;;;4.65;2.20;;;20.00;99.90;;;;;;5074243;28;20044;-73
2022/08/13 02:08:56;;;;;;;4.55;2.30;;;20.00;99.90;;;;;;5073742;28;20131;-73
2022/08/13 02:11:22;;;;;;;2.67;2.20;;;19.90;99.90;;;;;;5074459;28;20487;-73
2022/08/13 02:13:52;;;;;;;3.15;2.10;;;19.90;99.90;;;;;;5074176;28;20036;-73
2022/08/13 02:16:18;;;;;;;3.45;2.58;;;19.80;99.90;;;;;;5074799;28;20075;-73
2022/08/13 02:18:44;;;;;;;4.45;2.30;;;19.80;99.90;;;;;;5072794;28;20049;-72
2022/08/13 02:21:11;;;;;;;2.17;1.85;;;19.70;99.90;;;;;;5073809;28;20051;-72
2022/08/13 02:23:37;;;;;;;2.63;2.17;;;19.70;99.90;;;;;;5073854;28;20051;-73
2022/08/13 02:26:05;;;;;;;3.30;2.17;;;19.70;99.90;;;;;;5073355;28;20048;-73
2022/08/13 02:28:37;;;;;;;4.28;2.20;;;19.70;99.90;;;;;;5072729;28;20040;-73
2022/08/13 02:31:04;;;;;;;3.23;1.90;;;19.70;99.90;;;;;;5072943;28;20083;-73
2022/08/13 02:33:29;;;;;;;3.75;2.20;;;19.60;99.90;;;;;;5073918;28;20195;-73
2022/08/13 02:35:55;;;;;;;2.60;2.40;;;19.60;99.90;;;;;;5056107;28;20155;-72
2022/08/13 02:38:21;;;;;;;3.15;2.58;;;19.60;99.90;;;;;;5072895;28;20137;-73
2022/08/13 02:43:32;;;;;;;4.60;2.45;;;19.60;99.90;;;;;;5073651;28;20123;-73
2022/08/13 02:46:00;;;;;;;3.30;2.33;;;19.50;99.90;;;;;;5073712;28;20101;-72
2022/08/13 02:48:26;;;;;;;4.22;2.63;;;19.50;99.90;;;;;;5072194;28;20500;-73
2022/08/13 02:50:55;;;;;;;4.07;2.90;;;19.50;99.90;;;;;;5072449;28;20393;-73
2022/08/13 02:53:22;;;;;;;2.70;2.33;;;19.50;99.90;;;;;;5073544;28;20527;-73
2022/08/13 02:55:48;;;;;;;4.13;2.88;;;19.50;99.90;;;;;;5072678;28;20044;-73
2022/08/13 02:58:15;;;;;;;3.67;2.95;;;19.40;99.90;;;;;;5072329;28;20051;-73
2022/08/13 03:00:41;;;;;;;2.78;2.58;;;19.40;99.90;;;;;;5073387;28;20500;-73
2022/08/13 03:03:08;;;;;;;4.28;2.72;;;19.40;99.90;;;;;;5073131;28;20056;-73
2022/08/13 03:05:35;;;;;;;4.68;2.90;;;19.40;99.90;;;;;;5072361;28;20044;-73
2022/08/13 03:08:03;;;;;;;3.60;3.17;;;19.40;99.90;;;;;;5073385;28;20416;-73
2022/08/13 03:10:29;;;;;;;3.13;2.83;;;19.40;99.90;;;;;;5072912;28;20128;-73
2022/08/13 03:13:26;;;;;;;3.60;2.70;;;19.40;99.90;;;;;;5073374;28;20075;-72
2022/08/13 03:15:55;;;;;;;5.75;3.17;;;19.30;99.90;;;;;;5071524;28;20099;-73
2022/08/13 03:18:22;;;;;;;4.40;2.95;;;19.30;99.90;;;;;;5072316;28;20131;-73
2022/08/13 03:20:49;;;;;;;4.10;2.97;;;19.30;99.90;;;;;;5073557;28;20080;-73
2022/08/13 03:23:15;;;;;;;5.65;3.15;;;19.30;99.90;;;;;;5073021;28;20052;-73
2022/08/13 03:25:40;;;;;;;4.50;3.38;;;19.30;99.90;;;;;;5073102;28;20500;-72
2022/08/13 03:28:06;;;;;;;3.33;2.97;;;19.30;99.90;;;;;;5073159;28;20119;-72
2022/08/13 03:30:34;;;;;;;4.40;2.92;;;19.20;99.90;;;;;;5071964;28;20055;-73
2022/08/13 03:33:08;;;;;;;3.85;2.85;;;19.20;99.90;;;;;;5072024;28;20048;-73
2022/08/13 03:35:35;;;;;;;3.28;3.03;;;19.20;99.90;;;;;;5073682;28;20044;-72
2022/08/13 03:38:03;;;;;;;2.72;2.53;;;19.10;99.90;;;;;;5059494;28;20048;-73
2022/08/13 03:43:13;;;;;;;4.10;2.72;;;19.10;99.90;;;;;;5076027;28;20079;-72
2022/08/13 03:45:40;;;;;;;4.78;3.33;;;19.00;99.90;;;;;;5077376;28;20048;-72
2022/08/13 03:48:06;;;;;;;3.05;2.60;;;19.00;99.90;;;;;;5076973;28;20049;-72
2022/08/13 03:50:32;;;;;;;3.70;3.40;;;19.00;99.90;;;;;;5076914;28;20052;-72
2022/08/13 03:53:03;;;;;;;3.40;3.08;;;19.00;99.90;;;;;;5076800;28;20076;-73
2022/08/13 03:55:30;;;;;;;4.07;2.95;;;19.00;99.90;;;;;;5075740;28;20109;-73
2022/08/13 03:57:57;;;;;;;3.90;3.50;;;18.90;99.90;;;;;;5042994;28;20048;-73
2022/08/13 04:00:27;;;;;;;3.92;3.38;;;18.90;99.90;;;;;;5076970;28;20086;-72
2022/08/13 04:02:52;;;;;;;3.60;3.30;;;18.90;99.90;;;;;;5075538;28;20060;-73
2022/08/13 04:05:18;;;;;;;5.15;3.65;;;18.90;99.90;;;;;;5076643;28;20074;-73
2022/08/13 04:07:44;;;;;;;4.85;3.45;;;18.90;99.90;;;;;;5075193;28;20036;-73
2022/08/13 04:10:12;;;;;;;3.88;3.28;;;18.90;99.90;;;;;;5058444;28;20449;-73
2022/08/13 04:12:38;;;;;;;4.78;3.58;;;18.90;99.90;;;;;;5076087;28;20044;-72
2022/08/13 04:15:06;;;;;;;4.78;3.30;;;18.90;99.90;;;;;;5076626;28;20491;-72
2022/08/13 04:17:35;;;;;;;3.88;3.33;;;18.90;99.90;;;;;;5076428;28;20067;-73
2022/08/13 04:20:03;;;;;;;4.78;3.60;;;18.80;99.90;;;;;;5076462;28;20052;-73
2022/08/13 04:22:29;;;;;;;5.40;3.55;;;18.80;99.90;;;;;;5076603;28;20052;-72
2022/08/13 04:24:55;;;;;;;4.75;3.30;;;18.80;99.90;;;;;;5058319;28;20075;-73
2022/08/13 04:27:21;;;;;;;5.10;3.58;;;18.80;99.90;;;;;;5076424;28;20078;-73
2022/08/13 04:29:48;;;;;;;3.90;3.50;;;18.80;99.90;;;;;;5076316;28;20049;-73
2022/08/13 04:32:14;;;;;;;4.57;3.13;;;18.80;99.90;;;;;;5076340;28;20052;-73
2022/08/13 04:34:39;;;;;;;4.40;3.45;;;18.80;99.90;;;;;;5074934;28;20039;-72
2022/08/13 04:37:07;;;;;;;3.88;3.58;;;18.80;99.90;;;;;;5075317;28;20483;-73
2022/08/13 04:39:33;;;;;;;4.50;3.58;;;18.80;99.90;;;;;;5074610;28;20044;-73
2022/08/13 04:41:59;;;;;;;3.63;3.33;;;18.70;99.90;;;;;;5076383;28;20055;-73
2022/08/13 04:44:25;;;;;;;3.92;3.60;;;18.70;99.90;;;;;;5076177;28;20044;-73
2022/08/13 04:46:51;;;;;;;3.97;3.33;;;18.70;99.90;;;;;;5074586;28;20078;-72
2022/08/13 04:49:17;;;;;;;4.22;3.15;;;18.70;99.90;;;;;;5074191;28;20041;-72
2022/08/13 04:51:42;;;;;;;3.72;3.30;;;18.70;99.90;;;;;;5074810;28;20135;-73
2022/08/13 04:54:08;;;;;;;3.38;3.08;;;18.70;99.90;;;;;;5075937;28;20040;-73
2022/08/13 04:56:34;;;;;;;3.20;2.60;;;18.70;99.90;;;;;;5075873;28;20091;-73
2022/08/13 04:59:00;;;;;;;3.65;2.95;;;18.70;99.90;;;;;;5058428;28;20052;-77
2022/08/13 05:01:26;;;;;;;4.70;3.00;;;18.80;99.90;;;;;;5075860;28;20053;-77
2022/08/13 05:03:52;;;;;;;3.10;2.80;;;18.80;99.90;;;;;;5075407;28;20062;-77
2022/08/13 05:06:21;;;;;;;4.85;3.08;;;18.80;99.90;;;;;;5074644;28;20056;-77
2022/08/13 05:08:49;;;;;;;4.10;3.10;;;18.80;99.90;;;;;;5075651;28;20048;-75
2022/08/13 05:11:17;;;;;;;4.25;2.60;;;18.80;99.90;;;;;;5075677;28;20080;-77
2022/08/13 05:13:43;;;;;;;4.18;2.83;;;18.90;99.90;;;;;;5075649;28;20048;-77
2022/08/13 05:16:14;;;;;;;3.88;2.97;;;18.90;99.90;;;;;;5074539;28;20106;-77
2022/08/13 05:18:45;;;;;;;3.80;3.03;;;18.90;99.90;;;;;;5075416;28;20048;-77
2022/08/13 05:21:12;;;;;;;4.43;3.05;;;18.90;99.90;;;;;;5074391;28;20131;-77
2022/08/13 05:23:39;;;;;;;4.55;2.50;;;19.00;99.90;;;;;;5075353;28;20106;-77
2022/08/13 05:26:06;;;;;;;4.47;2.78;;;19.00;99.90;;;;;;5074436;28;20445;-77
2022/08/13 05:28:32;;;;;;;5.60;2.90;;;19.00;99.90;;;;;;5057983;28;20053;-77
2022/08/13 05:30:59;;;;;;;3.28;2.90;;;19.00;99.90;;;;;;5074040;28;20049;-76
2022/08/13 05:33:27;;;;;;;4.22;2.88;;;19.10;99.90;;;;;;5075521;28;20040;-77
2022/08/13 05:35:58;;;;;;;3.95;2.60;;;19.10;99.90;;;;;;5075263;28;20116;-78
2022/08/13 05:38:25;;;;;;;6.20;2.70;;;19.10;99.90;;;;;;5074734;28;20483;-77
2022/08/13 05:40:54;;;;;;;3.72;2.42;;;19.10;99.90;;;;;;5056804;28;20101;-77
2022/08/13 05:43:23;;;;;;;4.63;2.53;;;19.20;99.90;;;;;;5073925;28;20044;-77
2022/08/13 05:45:57;;;;;;;3.95;2.65;;;19.20;99.90;;;;;;5075210;28;20040;-78
2022/08/13 05:48:41;;;;;;;3.40;2.42;;;19.20;99.90;;;;;;5074129;28;20070;-77
2022/08/13 05:51:10;;;;;;;5.15;2.75;;;19.30;99.90;;;;;;5073898;28;20135;-77
2022/08/13 05:53:37;;;;;;;2.70;2.50;;;19.30;99.90;;;;;;5073667;28;20059;-76
2022/08/13 05:56:05;;;;;;;3.05;2.38;;;19.40;99.90;;;;;;5074554;28;20128;-77
2022/08/13 05:58:30;;;;;;;6.55;2.65;;;19.40;99.90;;;;;;5074831;28;20048;-77
2022/08/13 06:03:41;;;;;;;2.55;2.35;;;19.40;99.90;;;;;;5073266;28;20063;-77
2022/08/13 06:06:09;;;;;;;5.32;2.47;;;19.50;99.90;;;;;;5057173;28;20105;-76
2022/08/13 06:08:37;;;;;;;4.53;2.50;;;19.50;99.90;;;;;;5074546;28;20095;-77
2022/08/13 06:11:13;;;;;;;4.13;2.45;;;19.60;99.90;;;;;;5072904;28;20369;-76
2022/08/13 06:13:39;;;;;;;2.85;2.10;;;19.60;99.90;;;;;;5073250;28;20118;-76
2022/08/13 06:16:10;;;;;;;3.80;2.70;;;19.60;99.90;;;;;;5074486;28;20080;-77
2022/08/13 06:18:40;;;;;;;3.45;2.58;;;19.60;99.90;;;;;;5073295;28;20056;-76
2022/08/13 06:21:10;;;;;;;3.38;2.22;;;19.70;99.90;;;;;;5072962;28;20048;-76
2022/08/13 06:23:38;;;;;;;3.65;2.40;;;19.70;99.90;;;;;;5074435;28;20040;-76
2022/08/13 06:26:06;;;;;;;2.88;2.08;;;19.80;99.90;;;;;;5074025;28;20554;-76
2022/08/13 06:28:34;;;;;;;3.75;2.22;;;19.80;99.90;;;;;;5073165;28;20052;-76
2022/08/13 06:31:05;;;;;;;3.20;2.35;;;19.90;99.90;;;;;;5056246;28;20052;-77
2022/08/13 06:33:34;;;;;;;2.60;2.40;;;19.90;99.90;;;;;;5072962;28;20182;-76
2022/08/13 06:36:10;;;;;;;2.17;1.98;;;20.00;99.90;;;;;;5073278;28;20044;-76
2022/08/13 06:38:49;;;;;;;2.65;1.50;;;20.00;99.90;;;;;;5074333;28;20055;-76
2022/08/13 06:41:17;;;;;;;2.67;1.73;;;20.10;99.90;;;;;;5073504;28;20127;-76
2022/08/13 06:43:47;;;;;;;3.55;1.77;;;20.20;99.90;;;;;;5072556;28;20460;-76
2022/08/13 06:46:15;;;;;;;2.42;1.55;;;20.20;99.90;;;;;;5072517;28;20048;-76
2022/08/13 06:48:41;;;;;;;2.42;1.52;;;20.30;99.90;;;;;;5073919;28;20044;-76
2022/08/13 06:51:09;;;;;;;2.75;1.95;;;20.30;99.90;;;;;;5072686;28;20397;-76
2022/08/13 06:53:37;;;;;;;3.25;2.10;;;20.40;99.90;;;;;;5056054;28;20045;-76
2022/08/13 06:56:05;;;;;;;7.20;2.22;;;20.50;99.90;;;;;;5073668;28;20078;-76
2022/08/13 06:58:31;;;;;;;2.95;2.00;;;20.60;99.90;;;;;;5072640;28;20055;-76
2022/08/13 07:00:59;;;;;;;3.28;2.15;;;20.60;99.90;;;;;;5073754;28;20086;-76
2022/08/13 07:03:32;;;;;;;5.38;1.75;;;20.80;99.90;;;;;;5073334;28;20060;-76
2022/08/13 07:05:59;;;;;;;3.70;1.77;;;20.80;99.90;;;;;;5072576;28;20102;-76
2022/08/13 07:08:27;;;;;;;3.97;1.50;;;20.90;99.90;;;;;;5072628;28;20098;-76
2022/08/13 07:13:41;;;;;;;5.15;2.20;;;21.00;99.90;;;;;;5072730;28;20048;-76
2022/08/13 07:16:08;;;;;;;2.50;1.67;;;21.10;99.90;;;;;;5073298;28;20080;-77
2022/08/13 07:18:35;;;;;;;5.88;2.67;;;21.20;99.90;;;;;;5073293;28;20041;-75
2022/08/13 07:21:07;;;;;;;4.97;2.08;;;21.30;99.90;;;;;;5072252;28;20098;-76
2022/08/13 07:23:33;;;;;;;6.10;1.77;;;21.30;99.90;;;;;;5072281;28;20094;-76
2022/08/13 07:26:00;;;;;;;6.13;2.00;;;21.40;99.90;;;;;;5072442;28;20489;-78
2022/08/13 07:28:27;;;;;;;2.95;1.60;;;21.50;99.90;;;;;;5055487;28;20101;-77
2022/08/13 07:30:55;;;;;;;3.72;1.80;;;21.60;99.90;;;;;;5055588;28;20068;-77
2022/08/13 07:33:22;;;;;;;3.17;1.30;;;21.60;99.80;;;;;;5073252;28;20053;-77
2022/08/13 07:35:48;;;;;;;2.83;1.30;;;21.70;99.70;;;;;;5074445;28;20040;-77
2022/08/13 07:38:15;;;;;;;1.88;1.50;;;21.80;99.50;;;;;;5071818;28;20045;-77
2022/08/13 07:40:45;;;;;;;3.58;1.40;;;21.90;99.50;;;;;;5071612;28;20044;-77
2022/08/13 07:43:12;;;;;;;3.45;1.40;;;22.00;99.60;;;;;;5072998;28;20139;-76
2022/08/13 07:45:39;;;;;;;2.10;1.20;;;22.10;99.30;;;;;;5074747;28;20045;-78
2022/08/13 07:48:06;;;;;;;2.75;1.17;;;22.10;99.00;;;;;;5074241;28;20048;-77
2022/08/13 07:50:34;;;;;;;2.95;1.30;;;22.20;98.80;;;;;;5073734;28;20064;-77
2022/08/13 07:52:59;;;;;;;3.40;1.20;;;22.30;98.80;;;;;;5056573;28;20048;-78
2022/08/13 07:55:27;;;;;;;3.15;1.10;;;22.40;98.70;;;;;;5072377;28;20097;-79
2022/08/13 07:57:54;;;;;;;3.35;1.55;;;22.50;98.90;;;;;;5073574;28;20048;-79
2022/08/13 08:00:25;;;;;;;3.72;1.52;;;22.60;98.30;;;;;;5055811;28;20056;-79
2022/08/13 08:03:03;;;;;;;3.20;1.20;;;22.70;98.10;;;;;;5055415;28;20056;-78
2022/08/13 08:05:33;;;;;;;2.35;1.75;;;22.80;98.00;;;;;;5072915;28;20311;-79
2022/08/13 08:08:00;;;;;;;2.95;1.73;;;22.80;97.80;;;;;;5055435;28;20055;-78
2022/08/13 08:10:27;;;;;;;3.25;1.77;;;22.90;97.50;;;;;;5071613;28;20063;-78
2022/08/13 08:12:59;;;;;;;2.33;1.45;;;23.00;97.50;;;;;;5073268;28;20127;-78
2022/08/13 08:15:27;;;;;;;2.72;1.42;;;23.00;97.40;;;;;;5073024;28;20056;-78
2022/08/13 08:18:00;;;;;;;2.83;1.60;;;23.10;97.10;;;;;;5071724;28;20590;-79
2022/08/13 08:20:26;;;;;;;3.10;2.08;;;23.20;97.10;;;;;;5073156;28;20149;-75
2022/08/13 08:22:52;;;;;;;2.40;1.73;;;23.20;96.70;;;;;;5073953;28;20508;-75
2022/08/13 08:25:19;;;;;;;3.83;1.52;;;23.30;96.60;;;;;;5058937;28;20044;-75
2022/08/13 08:27:45;;;;;;;1.88;1.30;;;23.40;96.30;;;;;;5076447;28;20403;-75
2022/08/13 08:30:19;;;;;;;3.65;2.00;;;23.40;96.20;;;;;;5058775;28;20048;-75
2022/08/13 08:32:53;;;;;;;3.65;1.63;;;23.50;96.10;;;;;;5075455;28;20071;-76
2022/08/13 08:35:22;;;;;;;1.73;0.98;;;23.60;96.10;;;;;;5075684;28;20431;-75
2022/08/13 08:43:34;;;;;;;2.13;1.08;;;23.80;94.40;;;;;;5076195;28;20049;-75
2022/08/13 08:46:03;;;;;;;2.13;0.80;;;24.00;94.20;;;;;;5075670;28;20071;-75
2022/08/13 08:48:30;;;;;;;2.15;0.93;;;24.10;93.60;;;;;;5075699;28;20369;-74
2022/08/13 08:50:57;;;;;;;3.67;0.90;;;24.10;93.10;;;;;;5074374;28;20135;-74
2022/08/13 08:53:24;;;;;;;1.67;0.90;;;24.20;92.80;;;;;;5073981;28;20040;-75
2022/08/13 08:55:51;;;;;;;1.05;0.70;;;24.20;92.30;;;;;;5075513;28;20051;-74
2022/08/13 08:58:21;;;;;;;1.45;0.90;;;24.30;92.10;;;;;;5075433;28;20392;-74
2022/08/13 09:00:48;;;;;;;1.40;0.80;;;24.40;92.20;;;;;;5073028;28;20036;-74
2022/08/13 09:03:18;;;;;;;1.67;0.80;;;24.50;92.20;;;;;;5070089;28;20083;-76
2022/08/13 09:05:46;;;;;;;2.55;1.00;;;24.60;92.60;;;;;;5059359;28;20057;-76
2022/08/13 09:08:15;;;;;;;1.52;0.80;;;24.70;92.70;;;;;;5064489;28;20051;-76
2022/08/13 09:10:42;;;;;;;4.63;0.95;;;24.90;94.50;;;;;;5063053;28;20044;-76
2022/08/13 09:13:09;;;;;;;0.90;0.63;;;24.80;94.70;;;;;;5065200;28;20048;-76
2022/08/13 09:15:36;;;;;;;2.22;0.90;;;24.80;91.80;;;;;;5063168;28;20280;-76
2022/08/13 09:18:02;;;;;;;2.45;0.80;;;25.00;92.00;;;;;;5065108;28;20492;-75
2022/08/13 09:20:33;;;;;;;2.28;0.80;;;25.00;91.00;;;;;;5093458;28;20055;-75
2022/08/13 09:23:07;;;;;;;1.35;0.70;;;25.00;90.80;;;;;;5062503;28;20059;-75
2022/08/13 09:25:34;;;;;;;1.33;0.80;;;25.20;90.30;;;;;;5051359;28;20561;-76
2022/08/13 09:28:01;;;;;;;1.50;0.85;;;25.20;89.50;;;;;;5070039;28;20040;-76
2022/08/13 09:30:27;;;;;;;1.95;0.70;;;25.20;89.60;;;;;;5067243;28;20052;-76
2022/08/13 09:32:56;;;;;;;9.32;0.95;;;25.40;89.90;;;;;;5062285;28;20056;-79
2022/08/13 09:35:24;;;;;;;1.52;0.70;;;25.40;90.00;;;;;;5065994;28;20400;-76
2022/08/13 09:37:50;;;;;;;1.17;0.80;;;25.50;88.60;;;;;;5068144;28;20041;-76
2022/08/13 09:40:17;;;;;;;4.97;0.80;;;25.50;87.70;;;;;;5066043;28;20041;-76
2022/08/13 09:43:01;;;;;;;1.40;0.70;;;25.70;87.10;;;;;;5048033;28;20041;-76
2022/08/13 09:45:28;;;;;;;3.65;0.70;;;;;;;;;;5065918;28;20041;-75
2022/08/13 09:47:55;;;;;;;1.23;0.70;;;25.70;78.20;;;;;;5066287;28;20056;-75
2022/08/13 09:50:23;;;;;;;0.93;0.68;;;25.80;80.50;;;;;;5060123;28;20080;-78
2022/08/13 09:52:51;;;;;;;28.98;2.65;;;25.90;77.80;;;;;;5061003;28;20062;-76
2022/08/13 09:55:17;;;;;;;1.10;0.73;;;25.80;78.10;;;;;;5050990;28;20051;-76
2022/08/13 09:57:49;;;;;;;0.85;0.70;;;26.00;78.10;;;;;;5097169;28;20048;-76
2022/08/13 10:00:21;;;;;;;0.60;0.60;;;26.00;77.70;;;;;;5056920;28;20045;-75
2022/08/13 10:02:54;;;;;;;2.60;0.90;;;26.10;76.30;;;;;;5063095;28;20052;-78
2022/08/13 10:05:20;;;;;;;4.43;0.80;;;26.10;75.20;;;;;;5062526;28;20091;-78
2022/08/13 10:07:46;;;;;;;3.08;0.80;;;26.20;74.40;;;;;;5060719;28;20052;-76
2022/08/13 10:10:13;;;;;;;1.50;0.70;;;26.30;73.90;;;;;;5059800;28;20076;-76
2022/08/13 10:12:43;;;;;;;1.80;1.00;;;26.30;74.00;;;;;;5061843;28;20052;-76
2022/08/13 10:15:10;;;;;;;2.40;0.80;;;26.30;74.10;;;;;;5067867;28;20155;-75
2022/08/13 10:17:48;;;;;;;2.42;0.85;;;26.40;73.80;;;;;;5064571;28;20061;-77
2022/08/13 10:20:30;;;;;;;1.40;0.90;;;26.40;73.30;;;;;;5063963;28;20139;-77
2022/08/13 10:22:57;;;;;;;4.03;0.80;;;26.50;73.90;;;;;;5064865;28;20519;-74
2022/08/13 10:25:25;;;;;;;2.03;1.17;;;26.50;73.10;;;;;;5064452;28;20055;-76
2022/08/13 10:27:52;;;;;;;0.98;0.88;;;26.50;72.10;;;;;;5063516;28;20499;-76
2022/08/13 10:30:20;;;;;;;0.93;0.80;;;26.60;72.40;;;;;;5059487;28;20047;-75
2022/08/13 10:32:46;;;;;;;1.40;0.73;;;26.60;71.90;;;;;;5049123;28;20063;-77
2022/08/13 10:35:12;;;;;;;1.20;0.88;;;26.60;71.00;;;;;;5061303;28;20910;-74
2022/08/13 10:37:45;;;;;;;1.67;0.77;;;26.70;69.50;;;;;;5065042;28;20103;-72
2022/08/13 10:40:14;;;;;;;3.38;0.80;;;26.70;69.50;;;;;;5065826;28;20045;-74
2022/08/13 10:42:44;;;;;;;2.35;0.80;;;26.80;69.50;;;;;;5059714;28;20114;-70
2022/08/13 10:45:12;;;;;;;2.30;0.70;;;26.80;68.80;;;;;;5064159;28;20033;-71
2022/08/13 10:47:45;;;;;;;1.52;0.70;;;26.90;67.50;;;;;;5065854;28;20101;-72
2022/08/13 10:50:13;;;;;;;1.17;0.80;;;26.90;67.10;;;;;;5055124;28;20135;-75
2022/08/13 10:52:39;;;;;;;1.40;0.77;;;27.00;66.10;;;;;;5065292;28;20583;-75
2022/08/13 10:55:08;;;;;;;4.47;0.90;;;27.10;65.90;;;;;;5066352;28;20137;-74
2022/08/13 10:57:36;;;;;;;2.78;0.95;;;27.10;66.40;;;;;;5062594;28;20052;-74
2022/08/13 11:00:04;;;;;;;5.25;0.70;;;27.10;66.20;;;;;;5046751;28;20059;-72
2022/08/13 11:02:30;;;;;;;1.25;0.77;;;27.20;66.60;;;;;;5066144;28;20595;-70
2022/08/13 11:04:57;;;;;;;1.08;0.80;;;27.20;66.20;;;;;;5048152;28;20129;-75
2022/08/13 11:07:25;;;;;;;1.45;0.70;;;27.30;65.70;;;;;;5070801;28;20153;-74
2022/08/13 11:09:51;;;;;;;2.40;0.90;;;27.30;65.50;;;;;;5099333;28;20485;-75
2022/08/13 11:12:18;;;;;;;0.88;0.77;;;27.40;65.40;;;;;;5067640;28;20051;-75
2022/08/13 11:14:46;;;;;;;1.35;0.70;;;27.40;65.20;;;;;;5062914;28;20037;-79
2022/08/13 11:17:17;;;;;;;2.25;0.70;;;27.50;64.60;;;;;;5048289;28;20040;-75
2022/08/13 11:19:45;;;;;;;1.48;0.80;;;27.50;64.00;;;;;;5063940;28;20132;-75
2022/08/13 11:22:12;;;;;;;2.10;0.77;;;27.60;63.60;;;;;;5066204;28;20419;-75
2022/08/13 11:24:37;;;;;;;1.13;0.98;;;27.60;63.30;;;;;;5046968;28;20063;-71
2022/08/13 11:27:04;;;;;;;1.63;0.80;;;27.60;63.10;;;;;;5065340;28;20045;-71
2022/08/13 11:29:30;;;;;;;1.40;0.88;;;27.60;63.70;;;;;;5065634;28;20048;-74
2022/08/13 11:31:57;;;;;;;2.67;0.80;;;27.60;63.90;;;;;;5067099;28;20078;-75
2022/08/13 11:34:23;;;;;;;2.45;0.90;;;27.60;63.70;;;;;;5066238;28;20064;-73
2022/08/13 11:36:49;;;;;;;1.40;1.00;;;27.70;63.20;;;;;;5067054;28;20055;-79
2022/08/13 11:39:15;;;;;;;3.05;0.90;;;27.70;63.00;;;;;;5044014;28;20052;-70
2022/08/13 11:41:41;;;;;;;2.42;0.90;;;27.70;61.90;;;;;;5065790;28;20381;-71
2022/08/13 11:44:06;;;;;;;1.75;0.90;;;27.70;62.50;;;;;;5067704;28;20055;-75
2022/08/13 11:46:32;;;;;;;2.42;0.90;;;27.70;62.70;;;;;;5067844;28;20048;-75
2022/08/13 11:48:58;;;;;;;1.33;0.90;;;27.70;62.90;;;;;;5072575;28;20036;-72
2022/08/13 11:51:23;;;;;;;2.08;1.10;;;27.80;62.90;;;;;;5071568;28;20484;-69
2022/08/13 11:53:49;;;;;;;2.90;0.90;;;27.90;64.70;;;;;;5071045;28;20037;-74
2022/08/13 11:56:15;;;;;;;1.00;0.90;;;27.90;62.80;;;;;;5072579;28;20036;-72
2022/08/13 11:58:41;;;;;;;1.90;1.05;;;28.00;62.40;;;;;;5058569;28;20043;-71
2022/08/13 12:01:07;;;;;;;2.13;1.10;;;28.10;62.80;;;;;;5074463;28;20447;-71
2022/08/13 12:03:39;;;;;;;2.85;1.05;;;28.10;62.60;;;;;;5069371;28;20067;-70
2022/08/13 12:06:05;;;;;;;1.85;1.08;;;28.10;63.00;;;;;;5075779;28;20051;-71
2022/08/13 12:08:31;;;;;;;1.73;1.20;;;28.20;62.90;;;;;;5087355;28;20043;-74
2022/08/13 12:10:57;;;;;;;2.40;1.30;;;28.20;62.70;;;;;;5057373;28;20040;-71
2022/08/13 12:13:23;;;;;;;1.98;1.00;;;28.20;62.10;;;;;;5058338;28;20480;-74
2022/08/13 12:15:49;;;;;;;2.38;1.00;;;28.20;61.60;;;;;;5075878;28;20044;-74
2022/08/13 12:18:17;;;;;;;6.50;1.10;;;28.20;62.10;;;;;;5076182;28;20040;-73
2022/08/13 12:20:43;;;;;;;1.90;1.00;;;28.20;62.50;;;;;;5075047;28;20044;-71
2022/08/13 12:23:09;;;;;;;1.02;0.93;;;28.20;62.30;;;;;;5074980;28;20040;-74
2022/08/13 12:25:36;;;;;;;2.45;1.00;;;28.30;61.80;;;;;;5075888;28;20040;-76
2022/08/13 12:28:19;;;;;;;3.65;1.20;;;28.30;61.70;;;;;;5075744;28;20385;-73
2022/08/13 12:30:47;;;;;;;1.92;1.02;;;28.40;62.00;;;;;;5075541;28;20043;-78
2022/08/13 12:33:13;;;;;;;3.65;1.08;;;28.40;62.50;;;;;;5074665;28;20052;-73
2022/08/13 12:35:39;;;;;;;6.65;1.40;;;28.40;61.30;;;;;;5075845;28;20044;-72
2022/08/13 12:38:14;;;;;;;2.33;1.00;;;28.50;61.50;;;;;;5072820;28;20048;-74
2022/08/13 12:40:42;;;;;;;3.25;1.20;;;28.50;61.40;;;;;;5074307;28;20131;-71
2022/08/13 12:43:08;;;;;;;2.45;1.20;;;28.50;60.50;;;;;;5072827;28;20052;-76
2022/08/13 12:45:35;;;;;;;1.55;1.02;;;28.50;60.80;;;;;;5074634;28;20039;-71
2022/08/13 12:48:06;;;;;;;1.55;1.00;;;28.60;60.80;;;;;;5056403;28;20109;-72
2022/08/13 12:50:32;;;;;;;2.53;1.00;;;28.50;60.90;;;;;;5075180;28;20505;-73
2022/08/13 12:52:58;;;;;;;2.38;1.30;;;28.50;61.00;;;;;;5074200;28;20036;-74
2022/08/13 12:55:24;;;;;;;1.20;1.00;;;28.50;60.00;;;;;;5074063;28;20039;-75
2022/08/13 12:57:50;;;;;;;3.97;1.30;;;28.50;60.70;;;;;;5074365;28;20048;-71
2022/08/13 13:00:16;;;;;;;1.30;1.20;;;28.50;60.40;;;;;;5074251;28;20041;-75
2022/08/13 13:02:42;;;;;;;1.85;1.00;;;28.60;60.00;;;;;;5057426;28;20055;-80
2022/08/13 13:05:08;;;;;;;1.75;1.00;;;28.70;60.40;;;;;;5074156;28;20051;-74
2022/08/13 13:07:34;;;;;;;1.67;1.02;;;28.80;59.70;;;;;;5074361;28;20045;-73
2022/08/13 13:10:00;;;;;;;1.38;0.98;;;28.80;59.40;;;;;;5072701;28;20048;-69
2022/08/13 13:12:27;;;;;;;1.98;0.95;;;28.80;59.60;;;;;;5074119;28;20033;-70
2022/08/13 13:14:53;;;;;;;2.15;1.30;;;28.90;59.90;;;;;;5075067;28;20045;-69
2022/08/13 13:17:19;;;;;;;1.48;1.02;;;28.80;60.30;;;;;;5075480;28;20051;-76